sensor_id;sensor_type;location;lat;lon;timestamp;P1;durP1;ratioP1;P2;durP2;ratioP2
57655;SDS011;43482;53.334;6.744;2022-10-16T00:00:36;58.78;;;56.10;;
57655;SDS011;43482;53.334;6.744;2022-10-16T00:03:04;49.78;;;47.90;;
57655;SDS011;43482;53.334;6.744;2022-10-16T00:05:30;58.65;;;56.17;;
57655;SDS011;43482;53.334;6.744;2022-10-16T00:07:56;61.58;;;59.40;;
57655;SDS011;43482;53.334;6.744;2022-10-16T00:10:21;54.75;;;52.63;;
57655;SDS011;43482;53.334;6.744;2022-10-16T00:12:47;54.13;;;51.65;;
57655;SDS011;43482;53.334;6.744;2022-10-16T00:15:12;51.20;;;49.38;;
57655;SDS011;43482;53.334;6.744;2022-10-16T00:17:38;47.10;;;45.13;;
57655;SDS011;43482;53.334;6.744;2022-10-16T00:20:03;49.63;;;47.72;;
57655;SDS011;43482;53.334;6.744;2022-10-16T00:22:29;49.78;;;47.58;;
57655;SDS011;43482;53.334;6.744;2022-10-16T00:24:55;48.05;;;46.22;;
57655;SDS011;43482;53.334;6.744;2022-10-16T00:27:20;48.60;;;46.50;;
57655;SDS011;43482;53.334;6.744;2022-10-16T00:29:49;54.13;;;52.03;;
57655;SDS011;43482;53.334;6.744;2022-10-16T00:32:16;49.75;;;47.72;;
57655;SDS011;43482;53.334;6.744;2022-10-16T00:34:41;55.55;;;53.50;;
57655;SDS011;43482;53.334;6.744;2022-10-16T00:37:07;58.85;;;56.70;;
57655;SDS011;43482;53.334;6.744;2022-10-16T00:39:32;57.13;;;54.55;;
57655;SDS011;43482;53.334;6.744;2022-10-16T00:41:57;52.95;;;50.92;;
57655;SDS011;43482;53.334;6.744;2022-10-16T00:47:23;53.67;;;51.78;;
57655;SDS011;43482;53.334;6.744;2022-10-16T00:49:53;55.97;;;53.55;;
57655;SDS011;43482;53.334;6.744;2022-10-16T00:52:26;51.50;;;49.50;;
57655;SDS011;43482;53.334;6.744;2022-10-16T00:54:52;61.75;;;58.95;;
57655;SDS011;43482;53.334;6.744;2022-10-16T00:57:19;60.65;;;58.05;;
57655;SDS011;43482;53.334;6.744;2022-10-16T00:59:45;57.88;;;55.80;;
57655;SDS011;43482;53.334;6.744;2022-10-16T01:02:13;59.90;;;57.28;;
57655;SDS011;43482;53.334;6.744;2022-10-16T01:04:47;58.42;;;56.08;;
57655;SDS011;43482;53.334;6.744;2022-10-16T01:07:27;57.35;;;54.90;;
57655;SDS011;43482;53.334;6.744;2022-10-16T01:10:10;62.17;;;59.80;;
57655;SDS011;43482;53.334;6.744;2022-10-16T01:15:11;63.65;;;61.15;;
57655;SDS011;43482;53.334;6.744;2022-10-16T01:31:40;54.93;;;52.73;;
57655;SDS011;43482;53.334;6.744;2022-10-16T01:34:25;57.20;;;55.05;;
57655;SDS011;43482;53.334;6.744;2022-10-16T01:37:05;62.47;;;60.00;;
57655;SDS011;43482;53.334;6.744;2022-10-16T01:39:35;71.35;;;68.15;;
57655;SDS011;43482;53.334;6.744;2022-10-16T01:42:14;63.17;;;60.90;;
57655;SDS011;43482;53.334;6.744;2022-10-16T01:44:43;63.30;;;60.78;;
57655;SDS011;43482;53.334;6.744;2022-10-16T01:47:11;60.15;;;57.92;;
57655;SDS011;43482;53.334;6.744;2022-10-16T01:49:38;62.20;;;59.50;;
57655;SDS011;43482;53.334;6.744;2022-10-16T01:52:07;68.68;;;66.25;;
57655;SDS011;43482;53.334;6.744;2022-10-16T01:54:37;65.47;;;62.97;;
57655;SDS011;43482;53.334;6.744;2022-10-16T01:57:05;61.95;;;59.72;;
57655;SDS011;43482;53.334;6.744;2022-10-16T01:59:34;60.80;;;58.63;;
57655;SDS011;43482;53.334;6.744;2022-10-16T02:02:04;58.72;;;56.10;;
57655;SDS011;43482;53.334;6.744;2022-10-16T02:07:42;56.15;;;54.13;;
57655;SDS011;43482;53.334;6.744;2022-10-16T02:10:08;57.03;;;54.53;;
57655;SDS011;43482;53.334;6.744;2022-10-16T02:12:35;58.55;;;56.05;;
57655;SDS011;43482;53.334;6.744;2022-10-16T02:15:04;60.50;;;58.28;;
57655;SDS011;43482;53.334;6.744;2022-10-16T02:17:31;60.67;;;58.03;;
57655;SDS011;43482;53.334;6.744;2022-10-16T02:19:57;56.83;;;54.63;;
57655;SDS011;43482;53.334;6.744;2022-10-16T02:22:28;58.63;;;56.20;;
57655;SDS011;43482;53.334;6.744;2022-10-16T02:25:08;48.10;;;46.22;;
57655;SDS011;43482;53.334;6.744;2022-10-16T02:27:40;52.67;;;50.40;;
57655;SDS011;43482;53.334;6.744;2022-10-16T02:32:42;44.00;;;42.13;;
57655;SDS011;43482;53.334;6.744;2022-10-16T02:35:11;56.00;;;53.88;;
57655;SDS011;43482;53.334;6.744;2022-10-16T02:37:38;44.63;;;43.03;;
57655;SDS011;43482;53.334;6.744;2022-10-16T02:40:05;45.75;;;44.10;;
57655;SDS011;43482;53.334;6.744;2022-10-16T02:42:36;47.55;;;45.83;;
57655;SDS011;43482;53.334;6.744;2022-10-16T02:45:03;49.67;;;47.80;;
57655;SDS011;43482;53.334;6.744;2022-10-16T02:47:29;46.28;;;44.58;;
57655;SDS011;43482;53.334;6.744;2022-10-16T02:49:54;46.03;;;44.13;;
57655;SDS011;43482;53.334;6.744;2022-10-16T02:52:20;47.22;;;45.28;;
57655;SDS011;43482;53.334;6.744;2022-10-16T02:54:45;43.92;;;42.38;;
57655;SDS011;43482;53.334;6.744;2022-10-16T02:57:11;42.17;;;40.65;;
57655;SDS011;43482;53.334;6.744;2022-10-16T02:59:36;44.28;;;42.50;;
57655;SDS011;43482;53.334;6.744;2022-10-16T03:02:02;42.50;;;40.80;;
57655;SDS011;43482;53.334;6.744;2022-10-16T03:04:28;42.80;;;41.25;;
57655;SDS011;43482;53.334;6.744;2022-10-16T03:06:53;38.88;;;37.50;;
57655;SDS011;43482;53.334;6.744;2022-10-16T03:09:18;41.88;;;40.38;;
57655;SDS011;43482;53.334;6.744;2022-10-16T03:11:44;38.08;;;36.45;;
57655;SDS011;43482;53.334;6.744;2022-10-16T03:14:09;39.63;;;38.03;;
57655;SDS011;43482;53.334;6.744;2022-10-16T03:16:34;39.50;;;38.08;;
57655;SDS011;43482;53.334;6.744;2022-10-16T03:19:00;38.38;;;36.92;;
57655;SDS011;43482;53.334;6.744;2022-10-16T03:21:26;40.05;;;38.60;;
57655;SDS011;43482;53.334;6.744;2022-10-16T03:23:51;40.40;;;38.97;;
57655;SDS011;43482;53.334;6.744;2022-10-16T03:26:17;36.25;;;34.78;;
57655;SDS011;43482;53.334;6.744;2022-10-16T03:28:42;37.55;;;36.10;;
57655;SDS011;43482;53.334;6.744;2022-10-16T03:31:07;41.92;;;40.35;;
57655;SDS011;43482;53.334;6.744;2022-10-16T03:33:33;43.60;;;41.53;;
57655;SDS011;43482;53.334;6.744;2022-10-16T03:35:58;41.35;;;39.72;;
57655;SDS011;43482;53.334;6.744;2022-10-16T03:38:24;44.28;;;42.45;;
57655;SDS011;43482;53.334;6.744;2022-10-16T03:40:49;41.70;;;40.20;;
57655;SDS011;43482;53.334;6.744;2022-10-16T03:43:15;46.97;;;45.22;;
57655;SDS011;43482;53.334;6.744;2022-10-16T03:45:40;40.60;;;38.88;;
57655;SDS011;43482;53.334;6.744;2022-10-16T03:48:06;42.70;;;40.97;;
57655;SDS011;43482;53.334;6.744;2022-10-16T03:50:31;44.40;;;42.50;;
57655;SDS011;43482;53.334;6.744;2022-10-16T03:52:56;44.05;;;42.38;;
57655;SDS011;43482;53.334;6.744;2022-10-16T03:55:22;46.85;;;45.15;;
57655;SDS011;43482;53.334;6.744;2022-10-16T03:57:47;40.53;;;39.10;;
57655;SDS011;43482;53.334;6.744;2022-10-16T04:00:13;39.17;;;37.75;;
57655;SDS011;43482;53.334;6.744;2022-10-16T04:02:38;41.88;;;40.33;;
57655;SDS011;43482;53.334;6.744;2022-10-16T04:05:04;40.53;;;39.00;;
57655;SDS011;43482;53.334;6.744;2022-10-16T04:07:30;42.30;;;40.72;;
57655;SDS011;43482;53.334;6.744;2022-10-16T04:09:55;45.22;;;43.60;;
57655;SDS011;43482;53.334;6.744;2022-10-16T04:12:22;42.80;;;41.17;;
57655;SDS011;43482;53.334;6.744;2022-10-16T04:14:48;43.40;;;41.83;;
57655;SDS011;43482;53.334;6.744;2022-10-16T04:17:13;37.05;;;35.70;;
57655;SDS011;43482;53.334;6.744;2022-10-16T04:19:38;39.20;;;37.80;;
57655;SDS011;43482;53.334;6.744;2022-10-16T04:22:04;36.90;;;35.50;;
57655;SDS011;43482;53.334;6.744;2022-10-16T04:24:29;37.72;;;36.33;;
57655;SDS011;43482;53.334;6.744;2022-10-16T04:26:54;45.42;;;43.50;;
57655;SDS011;43482;53.334;6.744;2022-10-16T04:29:20;47.45;;;45.70;;
57655;SDS011;43482;53.334;6.744;2022-10-16T04:31:46;47.28;;;45.50;;
57655;SDS011;43482;53.334;6.744;2022-10-16T04:34:12;46.08;;;44.42;;
57655;SDS011;43482;53.334;6.744;2022-10-16T04:36:37;51.55;;;49.72;;
57655;SDS011;43482;53.334;6.744;2022-10-16T04:39:02;56.25;;;54.22;;
57655;SDS011;43482;53.334;6.744;2022-10-16T04:41:28;58.42;;;56.22;;
57655;SDS011;43482;53.334;6.744;2022-10-16T04:43:53;58.95;;;56.75;;
57655;SDS011;43482;53.334;6.744;2022-10-16T04:46:19;58.28;;;56.17;;
57655;SDS011;43482;53.334;6.744;2022-10-16T04:48:44;63.35;;;61.10;;
57655;SDS011;43482;53.334;6.744;2022-10-16T04:51:09;58.63;;;56.22;;
57655;SDS011;43482;53.334;6.744;2022-10-16T04:53:35;63.90;;;61.63;;
57655;SDS011;43482;53.334;6.744;2022-10-16T04:56:01;66.10;;;63.67;;
57655;SDS011;43482;53.334;6.744;2022-10-16T04:58:27;56.05;;;54.00;;
57655;SDS011;43482;53.334;6.744;2022-10-16T05:00:52;53.25;;;51.22;;
57655;SDS011;43482;53.334;6.744;2022-10-16T05:03:18;53.95;;;51.80;;
57655;SDS011;43482;53.334;6.744;2022-10-16T05:05:44;53.25;;;51.25;;
57655;SDS011;43482;53.334;6.744;2022-10-16T05:08:11;50.95;;;49.10;;
57655;SDS011;43482;53.334;6.744;2022-10-16T05:10:38;51.72;;;49.85;;
57655;SDS011;43482;53.334;6.744;2022-10-16T05:13:04;55.83;;;53.85;;
57655;SDS011;43482;53.334;6.744;2022-10-16T05:15:29;56.70;;;54.65;;
57655;SDS011;43482;53.334;6.744;2022-10-16T05:17:54;59.72;;;56.97;;
57655;SDS011;43482;53.334;6.744;2022-10-16T05:20:21;58.22;;;56.00;;
57655;SDS011;43482;53.334;6.744;2022-10-16T05:22:47;58.45;;;56.38;;
57655;SDS011;43482;53.334;6.744;2022-10-16T05:25:13;62.20;;;59.75;;
57655;SDS011;43482;53.334;6.744;2022-10-16T05:27:38;54.58;;;52.40;;
57655;SDS011;43482;53.334;6.744;2022-10-16T05:30:04;56.85;;;54.78;;
57655;SDS011;43482;53.334;6.744;2022-10-16T05:32:30;56.35;;;54.22;;
57655;SDS011;43482;53.334;6.744;2022-10-16T05:34:55;62.88;;;60.60;;
57655;SDS011;43482;53.334;6.744;2022-10-16T05:37:21;58.83;;;56.72;;
57655;SDS011;43482;53.334;6.744;2022-10-16T05:39:46;52.85;;;50.95;;
57655;SDS011;43482;53.334;6.744;2022-10-16T05:42:11;52.28;;;50.42;;
57655;SDS011;43482;53.334;6.744;2022-10-16T05:44:37;57.30;;;55.25;;
57655;SDS011;43482;53.334;6.744;2022-10-16T05:47:02;58.33;;;56.22;;
57655;SDS011;43482;53.334;6.744;2022-10-16T05:49:27;63.58;;;60.95;;
57655;SDS011;43482;53.334;6.744;2022-10-16T05:51:53;53.63;;;51.63;;
57655;SDS011;43482;53.334;6.744;2022-10-16T05:54:18;52.70;;;50.83;;
57655;SDS011;43482;53.334;6.744;2022-10-16T05:56:44;59.30;;;56.90;;
57655;SDS011;43482;53.334;6.744;2022-10-16T05:59:09;62.55;;;60.10;;
57655;SDS011;43482;53.334;6.744;2022-10-16T06:01:34;63.42;;;61.08;;
57655;SDS011;43482;53.334;6.744;2022-10-16T06:04:00;57.38;;;55.17;;
57655;SDS011;43482;53.334;6.744;2022-10-16T06:06:27;60.92;;;58.72;;
57655;SDS011;43482;53.334;6.744;2022-10-16T06:08:53;59.25;;;56.75;;
57655;SDS011;43482;53.334;6.744;2022-10-16T06:11:27;56.08;;;53.97;;
57655;SDS011;43482;53.334;6.744;2022-10-16T06:13:55;62.30;;;60.03;;
57655;SDS011;43482;53.334;6.744;2022-10-16T06:16:22;68.03;;;65.57;;
57655;SDS011;43482;53.334;6.744;2022-10-16T06:18:50;62.67;;;60.30;;
57655;SDS011;43482;53.334;6.744;2022-10-16T06:21:18;57.13;;;55.05;;
57655;SDS011;43482;53.334;6.744;2022-10-16T06:23:45;65.70;;;63.25;;
57655;SDS011;43482;53.334;6.744;2022-10-16T06:26:14;57.53;;;55.47;;
57655;SDS011;43482;53.334;6.744;2022-10-16T06:28:41;60.53;;;57.97;;
57655;SDS011;43482;53.334;6.744;2022-10-16T06:31:08;64.80;;;62.42;;
57655;SDS011;43482;53.334;6.744;2022-10-16T06:33:35;64.53;;;62.13;;
57655;SDS011;43482;53.334;6.744;2022-10-16T06:36:14;59.25;;;57.13;;
57655;SDS011;43482;53.334;6.744;2022-10-16T06:38:40;64.70;;;62.35;;
57655;SDS011;43482;53.334;6.744;2022-10-16T06:41:06;63.50;;;61.08;;
57655;SDS011;43482;53.334;6.744;2022-10-16T06:43:34;65.03;;;62.30;;
57655;SDS011;43482;53.334;6.744;2022-10-16T06:46:03;62.28;;;60.05;;
57655;SDS011;43482;53.334;6.744;2022-10-16T06:48:30;59.47;;;57.03;;
57655;SDS011;43482;53.334;6.744;2022-10-16T06:50:59;61.65;;;59.05;;
57655;SDS011;43482;53.334;6.744;2022-10-16T06:53:27;61.05;;;58.85;;
57655;SDS011;43482;53.334;6.744;2022-10-16T06:55:54;55.63;;;53.50;;
57655;SDS011;43482;53.334;6.744;2022-10-16T06:58:20;63.38;;;61.08;;
57655;SDS011;43482;53.334;6.744;2022-10-16T07:00:46;54.10;;;51.90;;
57655;SDS011;43482;53.334;6.744;2022-10-16T07:03:11;62.97;;;60.67;;
57655;SDS011;43482;53.334;6.744;2022-10-16T07:05:37;55.75;;;53.60;;
57655;SDS011;43482;53.334;6.744;2022-10-16T07:08:03;49.47;;;47.63;;
57655;SDS011;43482;53.334;6.744;2022-10-16T07:10:30;60.03;;;57.85;;
57655;SDS011;43482;53.334;6.744;2022-10-16T07:12:56;51.85;;;49.95;;
57655;SDS011;43482;53.334;6.744;2022-10-16T07:15:21;50.80;;;48.67;;
57655;SDS011;43482;53.334;6.744;2022-10-16T07:17:47;46.78;;;45.03;;
57655;SDS011;43482;53.334;6.744;2022-10-16T07:20:12;54.83;;;52.78;;
57655;SDS011;43482;53.334;6.744;2022-10-16T07:22:37;54.85;;;52.83;;
57655;SDS011;43482;53.334;6.744;2022-10-16T07:25:03;44.10;;;42.42;;
57655;SDS011;43482;53.334;6.744;2022-10-16T07:27:28;46.42;;;44.30;;
57655;SDS011;43482;53.334;6.744;2022-10-16T07:29:54;47.42;;;45.67;;
57655;SDS011;43482;53.334;6.744;2022-10-16T07:32:19;40.83;;;39.38;;
57655;SDS011;43482;53.334;6.744;2022-10-16T07:34:44;41.92;;;40.20;;
57655;SDS011;43482;53.334;6.744;2022-10-16T07:37:10;45.38;;;43.38;;
57655;SDS011;43482;53.334;6.744;2022-10-16T07:39:36;37.60;;;36.00;;
57655;SDS011;43482;53.334;6.744;2022-10-16T07:42:01;41.63;;;40.00;;
57655;SDS011;43482;53.334;6.744;2022-10-16T07:44:27;50.33;;;48.47;;
57655;SDS011;43482;53.334;6.744;2022-10-16T07:46:52;38.55;;;37.08;;
57655;SDS011;43482;53.334;6.744;2022-10-16T07:49:17;39.13;;;37.45;;
57655;SDS011;43482;53.334;6.744;2022-10-16T07:51:43;41.15;;;39.60;;
57655;SDS011;43482;53.334;6.744;2022-10-16T07:54:09;39.25;;;37.35;;
57655;SDS011;43482;53.334;6.744;2022-10-16T07:56:35;41.88;;;40.15;;
57655;SDS011;43482;53.334;6.744;2022-10-16T07:59:00;34.97;;;33.58;;
57655;SDS011;43482;53.334;6.744;2022-10-16T08:01:25;34.67;;;33.38;;
57655;SDS011;43482;53.334;6.744;2022-10-16T08:03:51;32.20;;;30.98;;
57655;SDS011;43482;53.334;6.744;2022-10-16T08:06:17;33.92;;;32.65;;
57655;SDS011;43482;53.334;6.744;2022-10-16T08:08:44;35.03;;;33.70;;
57655;SDS011;43482;53.334;6.744;2022-10-16T08:11:10;50.55;;;48.65;;
57655;SDS011;43482;53.334;6.744;2022-10-16T08:13:35;33.78;;;32.17;;
57655;SDS011;43482;53.334;6.744;2022-10-16T08:16:02;39.83;;;37.97;;
57655;SDS011;43482;53.334;6.744;2022-10-16T08:18:32;37.75;;;36.25;;
57655;SDS011;43482;53.334;6.744;2022-10-16T08:20:59;31.20;;;30.00;;
57655;SDS011;43482;53.334;6.744;2022-10-16T08:23:25;33.85;;;32.50;;
57655;SDS011;43482;53.334;6.744;2022-10-16T08:25:55;26.33;;;25.08;;
57655;SDS011;43482;53.334;6.744;2022-10-16T08:28:26;23.52;;;22.25;;
57655;SDS011;43482;53.334;6.744;2022-10-16T08:30:51;20.25;;;19.40;;
57655;SDS011;43482;53.334;6.744;2022-10-16T08:33:17;16.80;;;16.13;;
57655;SDS011;43482;53.334;6.744;2022-10-16T08:35:42;19.75;;;18.35;;
57655;SDS011;43482;53.334;6.744;2022-10-16T08:38:08;16.55;;;15.73;;
57655;SDS011;43482;53.334;6.744;2022-10-16T08:40:34;17.05;;;16.23;;
57655;SDS011;43482;53.334;6.744;2022-10-16T08:48:26;13.23;;;12.73;;
57655;SDS011;43482;53.334;6.744;2022-10-16T08:51:04;11.37;;;10.43;;
57655;SDS011;43482;53.334;6.744;2022-10-16T08:53:36;47.03;;;44.97;;
57655;SDS011;43482;53.334;6.744;2022-10-16T08:56:09;9.63;;;8.82;;
57655;SDS011;43482;53.334;6.744;2022-10-16T08:58:35;37.47;;;35.58;;
57655;SDS011;43482;53.334;6.744;2022-10-16T09:01:04;8.85;;;8.40;;
57655;SDS011;43482;53.334;6.744;2022-10-16T09:17:39;52.63;;;50.10;;
57655;SDS011;43482;53.334;6.744;2022-10-16T09:22:53;21.70;;;20.65;;
57655;SDS011;43482;53.334;6.744;2022-10-16T09:25:33;24.85;;;23.63;;
57655;SDS011;43482;53.334;6.744;2022-10-16T09:27:59;32.17;;;30.92;;
57655;SDS011;43482;53.334;6.744;2022-10-16T09:30:26;33.35;;;32.05;;
57655;SDS011;43482;53.334;6.744;2022-10-16T09:32:57;36.50;;;34.90;;
57655;SDS011;43482;53.334;6.744;2022-10-16T09:35:29;12.35;;;11.65;;
57655;SDS011;43482;53.334;6.744;2022-10-16T09:37:58;6.93;;;6.50;;
57655;SDS011;43482;53.334;6.744;2022-10-16T09:43:06;2.92;;;2.15;;
57655;SDS011;43482;53.334;6.744;2022-10-16T09:45:33;4.65;;;2.83;;
57655;SDS011;43482;53.334;6.744;2022-10-16T09:48:00;4.25;;;1.85;;
57655;SDS011;43482;53.334;6.744;2022-10-16T09:50:35;4.38;;;2.08;;
57655;SDS011;43482;53.334;6.744;2022-10-16T09:53:18;3.78;;;2.85;;
57655;SDS011;43482;53.334;6.744;2022-10-16T09:55:51;3.00;;;2.08;;
57655;SDS011;43482;53.334;6.744;2022-10-16T09:58:17;1.65;;;1.55;;
57655;SDS011;43482;53.334;6.744;2022-10-16T10:00:49;3.20;;;2.45;;
57655;SDS011;43482;53.334;6.744;2022-10-16T10:03:36;2.60;;;2.08;;
57655;SDS011;43482;53.334;6.744;2022-10-16T10:06:24;3.33;;;1.48;;
57655;SDS011;43482;53.334;6.744;2022-10-16T10:08:59;6.05;;;1.65;;
57655;SDS011;43482;53.334;6.744;2022-10-16T10:11:47;5.63;;;1.70;;
57655;SDS011;43482;53.334;6.744;2022-10-16T10:14:20;4.68;;;1.67;;
57655;SDS011;43482;53.334;6.744;2022-10-16T10:16:46;2.28;;;1.67;;
57655;SDS011;43482;53.334;6.744;2022-10-16T10:19:21;5.68;;;1.60;;
57655;SDS011;43482;53.334;6.744;2022-10-16T10:21:49;4.57;;;1.52;;
57655;SDS011;43482;53.334;6.744;2022-10-16T10:24:16;3.10;;;2.22;;
57655;SDS011;43482;53.334;6.744;2022-10-16T10:27:04;2.45;;;2.22;;
57655;SDS011;43482;53.334;6.744;2022-10-16T10:32:17;3.85;;;2.08;;
57655;SDS011;43482;53.334;6.744;2022-10-16T10:34:59;5.10;;;1.95;;
57655;SDS011;43482;53.334;6.744;2022-10-16T10:38:06;2.35;;;2.00;;
57655;SDS011;43482;53.334;6.744;2022-10-16T10:40:49;4.18;;;2.47;;
57655;SDS011;43482;53.334;6.744;2022-10-16T10:45:51;6.95;;;3.65;;
57655;SDS011;43482;53.334;6.744;2022-10-16T10:48:47;6.30;;;3.75;;
57655;SDS011;43482;53.334;6.744;2022-10-16T10:54:10;3.53;;;2.00;;
57655;SDS011;43482;53.334;6.744;2022-10-16T10:59:52;6.50;;;2.85;;
57655;SDS011;43482;53.334;6.744;2022-10-16T11:02:47;10.05;;;2.78;;
57655;SDS011;43482;53.334;6.744;2022-10-16T11:21:45;3.38;;;1.25;;
57655;SDS011;43482;53.334;6.744;2022-10-16T11:24:35;5.13;;;1.15;;
57655;SDS011;43482;53.334;6.744;2022-10-16T11:27:03;4.93;;;1.73;;
57655;SDS011;43482;53.334;6.744;2022-10-16T11:32:01;5.43;;;1.80;;
57655;SDS011;43482;53.334;6.744;2022-10-16T11:34:36;1.65;;;1.23;;
57655;SDS011;43482;53.334;6.744;2022-10-16T11:39:45;5.47;;;1.80;;
57655;SDS011;43482;53.334;6.744;2022-10-16T11:42:19;2.85;;;1.23;;
57655;SDS011;43482;53.334;6.744;2022-10-16T11:45:13;1.90;;;1.52;;
57655;SDS011;43482;53.334;6.744;2022-10-16T11:50:41;4.10;;;2.40;;
57655;SDS011;43482;53.334;6.744;2022-10-16T11:55:40;6.38;;;2.25;;
57655;SDS011;43482;53.334;6.744;2022-10-16T12:08:27;7.25;;;3.42;;
57655;SDS011;43482;53.334;6.744;2022-10-16T12:10:53;3.47;;;2.20;;
57655;SDS011;43482;53.334;6.744;2022-10-16T12:13:36;2.75;;;2.22;;
57655;SDS011;43482;53.334;6.744;2022-10-16T12:16:07;4.13;;;2.22;;
57655;SDS011;43482;53.334;6.744;2022-10-16T12:18:47;2.65;;;1.30;;
57655;SDS011;43482;53.334;6.744;2022-10-16T12:21:14;3.35;;;1.15;;
57655;SDS011;43482;53.334;6.744;2022-10-16T12:23:49;2.15;;;1.30;;
57655;SDS011;43482;53.334;6.744;2022-10-16T12:26:23;6.82;;;1.90;;
57655;SDS011;43482;53.334;6.744;2022-10-16T12:28:51;4.20;;;1.73;;
57655;SDS011;43482;53.334;6.744;2022-10-16T12:31:16;4.30;;;1.35;;
57655;SDS011;43482;53.334;6.744;2022-10-16T12:36:28;2.67;;;1.55;;
57655;SDS011;43482;53.334;6.744;2022-10-16T12:38:56;7.80;;;2.03;;
57655;SDS011;43482;53.334;6.744;2022-10-16T12:41:26;2.50;;;1.65;;
57655;SDS011;43482;53.334;6.744;2022-10-16T12:43:56;4.30;;;1.65;;
57655;SDS011;43482;53.334;6.744;2022-10-16T12:46:24;6.28;;;1.75;;
57655;SDS011;43482;53.334;6.744;2022-10-16T12:49:21;3.47;;;2.25;;
57655;SDS011;43482;53.334;6.744;2022-10-16T12:51:53;4.28;;;2.08;;
57655;SDS011;43482;53.334;6.744;2022-10-16T12:54:29;4.38;;;2.70;;
57655;SDS011;43482;53.334;6.744;2022-10-16T12:57:09;4.88;;;2.65;;
57655;SDS011;43482;53.334;6.744;2022-10-16T13:05:46;4.13;;;3.72;;
57655;SDS011;43482;53.334;6.744;2022-10-16T13:08:46;5.82;;;3.88;;
57655;SDS011;43482;53.334;6.744;2022-10-16T13:11:20;5.03;;;4.72;;
57655;SDS011;43482;53.334;6.744;2022-10-16T13:21:51;7.03;;;6.63;;
57655;SDS011;43482;53.334;6.744;2022-10-16T13:35:32;12.50;;;11.55;;
57655;SDS011;43482;53.334;6.744;2022-10-16T13:38:33;14.52;;;13.75;;
57655;SDS011;43482;53.334;6.744;2022-10-16T13:43:24;20.98;;;19.48;;
57655;SDS011;43482;53.334;6.744;2022-10-16T13:45:56;21.80;;;20.90;;
57655;SDS011;43482;53.334;6.744;2022-10-16T13:48:24;19.48;;;18.48;;
57655;SDS011;43482;53.334;6.744;2022-10-16T13:51:05;23.90;;;22.98;;
57655;SDS011;43482;53.334;6.744;2022-10-16T13:53:37;20.70;;;19.75;;
57655;SDS011;43482;53.334;6.744;2022-10-16T13:56:04;15.18;;;14.18;;
57655;SDS011;43482;53.334;6.744;2022-10-16T13:58:31;12.73;;;12.18;;
57655;SDS011;43482;53.334;6.744;2022-10-16T14:03:28;13.47;;;12.47;;
57655;SDS011;43482;53.334;6.744;2022-10-16T14:05:55;13.35;;;12.32;;
57655;SDS011;43482;53.334;6.744;2022-10-16T14:08:24;12.45;;;11.50;;
57655;SDS011;43482;53.334;6.744;2022-10-16T14:10:56;12.50;;;11.80;;
57655;SDS011;43482;53.334;6.744;2022-10-16T14:13:29;10.23;;;9.68;;
57655;SDS011;43482;53.334;6.744;2022-10-16T14:15:55;12.25;;;11.45;;
57655;SDS011;43482;53.334;6.744;2022-10-16T14:18:24;11.30;;;10.70;;
57655;SDS011;43482;53.334;6.744;2022-10-16T14:20:52;14.90;;;14.25;;
57655;SDS011;43482;53.334;6.744;2022-10-16T14:23:22;16.67;;;15.68;;
57655;SDS011;43482;53.334;6.744;2022-10-16T14:25:53;16.90;;;15.63;;
57655;SDS011;43482;53.334;6.744;2022-10-16T14:28:22;15.57;;;15.00;;
57655;SDS011;43482;53.334;6.744;2022-10-16T14:30:58;18.58;;;17.80;;
57655;SDS011;43482;53.334;6.744;2022-10-16T14:33:31;20.65;;;19.30;;
57655;SDS011;43482;53.334;6.744;2022-10-16T14:36:05;20.95;;;19.60;;
57655;SDS011;43482;53.334;6.744;2022-10-16T14:38:35;19.45;;;18.45;;
57655;SDS011;43482;53.334;6.744;2022-10-16T14:41:02;20.65;;;19.48;;
57655;SDS011;43482;53.334;6.744;2022-10-16T14:46:06;28.73;;;26.92;;
57655;SDS011;43482;53.334;6.744;2022-10-16T14:48:42;29.23;;;27.77;;
57655;SDS011;43482;53.334;6.744;2022-10-16T14:51:14;27.13;;;25.80;;
57655;SDS011;43482;53.334;6.744;2022-10-16T14:53:41;25.83;;;24.53;;
57655;SDS011;43482;53.334;6.744;2022-10-16T14:56:14;27.05;;;25.67;;
57655;SDS011;43482;53.334;6.744;2022-10-16T14:58:53;29.27;;;27.80;;
57655;SDS011;43482;53.334;6.744;2022-10-16T15:01:20;26.80;;;25.63;;
57655;SDS011;43482;53.334;6.744;2022-10-16T15:03:46;28.05;;;26.88;;
57655;SDS011;43482;53.334;6.744;2022-10-16T15:06:12;25.98;;;24.77;;
57655;SDS011;43482;53.334;6.744;2022-10-16T15:08:39;32.13;;;30.30;;
57655;SDS011;43482;53.334;6.744;2022-10-16T15:11:05;28.92;;;27.85;;
57655;SDS011;43482;53.334;6.744;2022-10-16T15:13:35;30.30;;;28.98;;
57655;SDS011;43482;53.334;6.744;2022-10-16T15:16:01;26.88;;;25.48;;
57655;SDS011;43482;53.334;6.744;2022-10-16T15:18:26;35.45;;;33.90;;
57655;SDS011;43482;53.334;6.744;2022-10-16T15:20:51;35.83;;;34.10;;
57655;SDS011;43482;53.334;6.744;2022-10-16T15:23:18;34.85;;;33.40;;
57655;SDS011;43482;53.334;6.744;2022-10-16T15:25:50;36.92;;;35.20;;
57655;SDS011;43482;53.334;6.744;2022-10-16T15:28:19;38.00;;;36.45;;
57655;SDS011;43482;53.334;6.744;2022-10-16T15:30:45;35.50;;;33.72;;
57655;SDS011;43482;53.334;6.744;2022-10-16T15:33:19;33.55;;;31.85;;
57655;SDS011;43482;53.334;6.744;2022-10-16T15:35:48;33.25;;;31.55;;
57655;SDS011;43482;53.334;6.744;2022-10-16T15:38:15;31.05;;;29.45;;
57655;SDS011;43482;53.334;6.744;2022-10-16T15:40:41;31.38;;;29.42;;
57655;SDS011;43482;53.334;6.744;2022-10-16T15:43:07;35.63;;;34.33;;
57655;SDS011;43482;53.334;6.744;2022-10-16T15:45:33;35.92;;;34.42;;
57655;SDS011;43482;53.334;6.744;2022-10-16T15:47:59;37.17;;;35.80;;
57655;SDS011;43482;53.334;6.744;2022-10-16T15:50:25;38.30;;;36.83;;
57655;SDS011;43482;53.334;6.744;2022-10-16T15:52:50;35.83;;;34.38;;
57655;SDS011;43482;53.334;6.744;2022-10-16T15:55:16;34.53;;;33.03;;
57655;SDS011;43482;53.334;6.744;2022-10-16T15:57:43;35.65;;;34.30;;
57655;SDS011;43482;53.334;6.744;2022-10-16T16:00:13;36.95;;;35.40;;
57655;SDS011;43482;53.334;6.744;2022-10-16T16:02:42;32.63;;;31.38;;
57655;SDS011;43482;53.334;6.744;2022-10-16T16:05:09;37.13;;;35.47;;
57655;SDS011;43482;53.334;6.744;2022-10-16T16:07:36;38.92;;;37.50;;
57655;SDS011;43482;53.334;6.744;2022-10-16T16:10:04;42.75;;;40.85;;
57655;SDS011;43482;53.334;6.744;2022-10-16T16:12:31;48.05;;;45.83;;
57655;SDS011;43482;53.334;6.744;2022-10-16T16:14:57;47.95;;;45.72;;
57655;SDS011;43482;53.334;6.744;2022-10-16T16:17:23;46.63;;;44.63;;
57655;SDS011;43482;53.334;6.744;2022-10-16T16:19:49;51.65;;;49.58;;
57655;SDS011;43482;53.334;6.744;2022-10-16T16:22:15;46.45;;;44.65;;
57655;SDS011;43482;53.334;6.744;2022-10-16T16:24:40;52.33;;;50.17;;
57655;SDS011;43482;53.334;6.744;2022-10-16T16:27:05;51.92;;;49.83;;
57655;SDS011;43482;53.334;6.744;2022-10-16T16:29:31;57.80;;;55.45;;
57655;SDS011;43482;53.334;6.744;2022-10-16T16:31:57;54.08;;;52.10;;
57655;SDS011;43482;53.334;6.744;2022-10-16T16:34:24;58.38;;;56.08;;
57655;SDS011;43482;53.334;6.744;2022-10-16T16:36:51;57.92;;;55.65;;
57655;SDS011;43482;53.334;6.744;2022-10-16T16:39:16;58.03;;;55.40;;
57655;SDS011;43482;53.334;6.744;2022-10-16T16:41:42;64.50;;;62.15;;
57655;SDS011;43482;53.334;6.744;2022-10-16T16:44:09;64.65;;;62.03;;
57655;SDS011;43482;53.334;6.744;2022-10-16T16:46:36;71.60;;;68.95;;
57655;SDS011;43482;53.334;6.744;2022-10-16T16:49:02;67.78;;;65.25;;